Time;durP1;ratioP1;P1;durP2;ratioP2;P2;SDS_P1;SDS_P2;PMS_P1;PMS_P2;Temp;Humidity;BMP_temperature;BMP_pressure;BME280_temperature;BME280_humidity;BME280_pressure;Samples;Min_cycle;Max_cycle;Signal;HPM_P1;HPM_P2
2023/12/01 00:02:10;;;;;;;19.90;17.77;;;6.10;99.90;;;;;;4955975;29;20035;-76
2023/12/01 00:04:39;;;;;;;22.45;18.60;;;6.10;99.90;;;;;;4952757;29;20543;-76
2023/12/01 00:07:05;;;;;;;36.10;25.40;;;6.10;99.90;;;;;;4955936;29;20657;-76
2023/12/01 00:09:32;;;;;;;24.23;20.55;;;6.00;99.90;;;;;;4955555;29;20031;-76
2023/12/01 00:11:58;;;;;;;30.02;24.60;;;6.00;99.90;;;;;;4955682;29;20038;-76
2023/12/01 00:14:23;;;;;;;30.77;23.60;;;5.90;99.90;;;;;;4938648;29;20027;-75
2023/12/01 00:16:49;;;;;;;30.75;23.00;;;5.90;99.90;;;;;;4955838;29;20098;-76
2023/12/01 00:19:15;;;;;;;25.73;21.67;;;5.90;99.90;;;;;;4956021;28;20031;-76
2023/12/01 00:21:41;;;;;;;28.65;23.27;;;5.90;99.90;;;;;;4956245;28;20062;-75
2023/12/01 00:24:06;;;;;;;22.38;20.02;;;5.90;99.90;;;;;;4938733;29;20028;-76
2023/12/01 00:26:32;;;;;;;33.72;24.45;;;6.00;99.90;;;;;;4951935;29;20036;-76
2023/12/01 00:28:58;;;;;;;21.90;19.45;;;6.00;99.90;;;;;;4936589;28;20020;-75
2023/12/01 00:31:24;;;;;;;30.25;23.25;;;6.10;99.90;;;;;;4938344;28;20031;-77
2023/12/01 00:33:51;;;;;;;22.42;20.05;;;6.10;99.90;;;;;;4938483;29;20482;-76
2023/12/01 00:36:16;;;;;;;22.77;19.40;;;6.10;99.90;;;;;;4955249;29;20481;-76
2023/12/01 00:38:43;;;;;;;21.73;19.08;;;6.10;99.90;;;;;;4952350;28;20033;-76
2023/12/01 00:41:08;;;;;;;24.85;20.48;;;6.10;99.90;;;;;;4955223;29;20070;-76
2023/12/01 00:43:34;;;;;;;24.35;20.58;;;6.10;99.90;;;;;;4938308;29;20035;-76
2023/12/01 00:45:59;;;;;;;24.92;21.33;;;6.10;99.90;;;;;;4955354;29;20019;-76
2023/12/01 00:48:25;;;;;;;25.02;21.35;;;6.10;99.90;;;;;;4955333;28;20054;-76
2023/12/01 00:50:53;;;;;;;25.67;22.17;;;6.20;99.90;;;;;;4954869;28;20050;-76
2023/12/01 00:53:19;;;;;;;24.83;19.75;;;6.20;99.90;;;;;;4938252;29;20457;-75
2023/12/01 00:55:45;;;;;;;24.58;20.48;;;6.20;99.90;;;;;;4955143;29;20062;-77
2023/12/01 00:58:10;;;;;;;34.70;24.20;;;6.20;99.90;;;;;;4937931;29;20034;-76
2023/12/01 01:00:36;;;;;;;29.38;23.00;;;6.20;99.90;;;;;;4953609;28;20082;-76
2023/12/01 01:03:02;;;;;;;29.10;23.80;;;6.10;99.90;;;;;;4935682;28;20024;-76
2023/12/01 01:05:27;;;;;;;26.55;22.67;;;6.10;99.90;;;;;;4938089;29;20102;-76
2023/12/01 01:07:53;;;;;;;24.10;20.98;;;6.10;99.90;;;;;;4953296;29;20050;-77
2023/12/01 01:10:19;;;;;;;25.67;21.52;;;6.10;99.90;;;;;;4954541;29;20042;-75
2023/12/01 01:12:45;;;;;;;26.48;21.95;;;6.10;99.90;;;;;;4954472;29;20030;-76
2023/12/01 01:15:11;;;;;;;27.27;22.13;;;6.10;99.90;;;;;;4943307;28;20031;-76
2023/12/01 01:17:36;;;;;;;21.17;18.08;;;6.10;99.90;;;;;;4937432;28;20078;-76
2023/12/01 01:20:03;;;;;;;22.65;20.25;;;6.10;99.90;;;;;;4937748;29;20038;-76
2023/12/01 01:22:29;;;;;;;23.45;19.50;;;6.00;99.90;;;;;;4954660;29;20051;-76
2023/12/01 01:24:55;;;;;;;29.58;23.15;;;6.10;99.90;;;;;;4955007;29;20078;-76
2023/12/01 01:27:21;;;;;;;28.23;22.73;;;6.00;99.90;;;;;;4954296;29;20112;-77
2023/12/01 01:29:47;;;;;;;30.80;23.52;;;6.00;99.90;;;;;;4954861;29;20063;-76
2023/12/01 01:32:12;;;;;;;26.77;22.98;;;6.00;99.90;;;;;;4954271;28;20079;-77
2023/12/01 01:34:38;;;;;;;25.60;21.20;;;6.00;99.90;;;;;;4954597;28;20090;-76
2023/12/01 01:37:07;;;;;;;27.90;23.13;;;6.00;99.90;;;;;;4954280;28;20078;-77
2023/12/01 01:39:33;;;;;;;27.15;22.77;;;6.00;99.90;;;;;;4953463;28;20016;-76
2023/12/01 01:41:58;;;;;;;25.33;21.42;;;6.10;99.90;;;;;;4953879;28;20503;-77
2023/12/01 01:44:24;;;;;;;24.45;21.38;;;6.00;99.90;;;;;;4937061;29;20110;-76
2023/12/01 01:46:51;;;;;;;23.92;20.73;;;6.10;99.90;;;;;;4954171;29;20061;-76
2023/12/01 01:49:25;;;;;;;26.55;22.70;;;6.10;99.90;;;;;;4954451;29;20019;-77
2023/12/01 01:51:52;;;;;;;29.42;25.25;;;6.10;99.90;;;;;;4954037;28;20047;-76
2023/12/01 01:54:19;;;;;;;26.35;23.55;;;6.10;99.90;;;;;;4954359;28;20098;-75
2023/12/01 01:56:45;;;;;;;31.75;24.73;;;6.10;99.90;;;;;;4953981;29;20023;-76
2023/12/01 01:59:12;;;;;;;29.77;24.23;;;6.20;99.90;;;;;;4954018;29;20425;-76
2023/12/01 02:01:39;;;;;;;27.60;21.83;;;6.20;99.90;;;;;;4953233;28;20023;-77
2023/12/01 02:04:07;;;;;;;28.42;23.58;;;6.10;99.90;;;;;;4931449;29;20478;-76
2023/12/01 02:06:33;;;;;;;26.08;21.83;;;6.10;99.90;;;;;;4953698;29;20024;-76
2023/12/01 02:09:00;;;;;;;22.85;19.27;;;6.00;99.90;;;;;;4953937;29;20102;-77
2023/12/01 02:11:26;;;;;;;23.73;20.13;;;6.00;99.90;;;;;;4953565;29;20031;-76
2023/12/01 02:13:53;;;;;;;22.05;19.50;;;6.10;99.90;;;;;;4935125;29;20015;-77
2023/12/01 02:16:21;;;;;;;20.20;17.88;;;6.10;99.90;;;;;;4953571;28;20054;-76
2023/12/01 02:18:48;;;;;;;21.75;19.45;;;6.20;99.90;;;;;;4953907;28;20019;-76
2023/12/01 02:21:13;;;;;;;22.88;19.15;;;6.20;99.90;;;;;;4953606;28;20023;-76
2023/12/01 02:23:39;;;;;;;21.08;18.77;;;6.20;99.90;;;;;;4953724;29;20078;-76
2023/12/01 02:26:09;;;;;;;22.52;18.20;;;6.30;99.90;;;;;;4953716;28;20023;-77
2023/12/01 02:28:35;;;;;;;20.88;18.55;;;6.20;99.90;;;;;;4953521;28;20034;-77
2023/12/01 02:31:03;;;;;;;20.63;18.42;;;6.20;99.90;;;;;;4953370;29;20039;-77
2023/12/01 02:33:29;;;;;;;20.55;18.35;;;6.30;99.90;;;;;;4953282;29;20055;-76
2023/12/01 02:35:55;;;;;;;21.80;18.17;;;6.30;99.90;;;;;;4952049;28;20540;-77
2023/12/01 02:38:20;;;;;;;30.83;25.02;;;6.30;99.90;;;;;;4950885;29;20031;-76
2023/12/01 02:40:50;;;;;;;29.90;23.85;;;6.30;99.90;;;;;;4953367;29;20015;-76
2023/12/01 02:43:17;;;;;;;25.45;21.17;;;6.30;99.90;;;;;;4951617;29;20147;-77
2023/12/01 02:45:43;;;;;;;29.70;23.75;;;6.20;99.90;;;;;;4936101;29;20122;-76
2023/12/01 02:48:08;;;;;;;31.65;22.98;;;6.30;99.90;;;;;;4953476;29;20051;-76
2023/12/01 02:50:35;;;;;;;22.15;19.75;;;6.20;99.90;;;;;;4935937;29;20023;-77
2023/12/01 02:53:02;;;;;;;27.88;21.88;;;6.20;99.90;;;;;;4953153;28;20106;-77
2023/12/01 02:55:28;;;;;;;24.58;21.38;;;6.20;99.90;;;;;;4953507;29;20505;-77
2023/12/01 02:57:54;;;;;;;30.63;23.52;;;6.10;99.90;;;;;;4949729;28;20122;-76
2023/12/01 03:00:20;;;;;;;30.30;22.42;;;6.10;99.90;;;;;;4934654;29;20046;-76
2023/12/01 03:02:46;;;;;;;27.73;22.58;;;6.20;99.90;;;;;;4952799;29;20050;-76
2023/12/01 03:05:12;;;;;;;30.77;23.70;;;6.30;99.90;;;;;;4953273;28;20027;-76
2023/12/01 03:07:39;;;;;;;29.50;23.48;;;6.30;99.90;;;;;;4935745;29;20477;-76
2023/12/01 03:10:09;;;;;;;25.63;20.90;;;6.10;99.90;;;;;;4955605;28;20137;-77
2023/12/01 03:12:35;;;;;;;22.63;19.98;;;6.20;99.90;;;;;;4954078;28;20092;-76
2023/12/01 03:15:04;;;;;;;24.25;20.55;;;6.20;99.90;;;;;;4958418;29;20062;-76
2023/12/01 03:17:30;;;;;;;30.25;22.67;;;6.20;99.90;;;;;;4941928;29;20544;-76
2023/12/01 03:19:58;;;;;;;22.58;19.45;;;6.20;99.90;;;;;;4959401;28;20507;-77
2023/12/01 03:22:23;;;;;;;28.77;23.42;;;6.20;99.90;;;;;;4959213;28;20038;-76
2023/12/01 03:24:50;;;;;;;29.15;23.40;;;6.30;99.90;;;;;;4959644;28;20031;-76
2023/12/01 03:27:16;;;;;;;25.80;19.67;;;6.20;99.90;;;;;;4959192;28;20090;-76
2023/12/01 03:29:42;;;;;;;24.20;20.08;;;6.20;99.90;;;;;;4953893;28;20031;-76
2023/12/01 03:32:07;;;;;;;21.27;18.98;;;6.20;99.90;;;;;;4954453;28;20130;-76
2023/12/01 03:34:34;;;;;;;27.55;21.75;;;6.20;99.90;;;;;;4955541;28;20038;-76
2023/12/01 03:37:00;;;;;;;26.40;21.80;;;6.20;99.90;;;;;;4952498;28;20305;-77
2023/12/01 03:39:26;;;;;;;24.25;20.25;;;6.20;99.90;;;;;;4954619;28;20029;-76
2023/12/01 03:41:52;;;;;;;24.20;20.23;;;6.20;99.90;;;;;;4955077;29;20163;-76
2023/12/01 03:44:18;;;;;;;27.80;20.95;;;6.20;99.90;;;;;;4937841;28;20034;-77
2023/12/01 03:46:44;;;;;;;22.20;19.15;;;6.20;99.90;;;;;;4954732;28;20085;-76
2023/12/01 03:49:10;;;;;;;22.10;19.15;;;6.20;99.90;;;;;;4955657;29;20786;-76
2023/12/01 03:51:36;;;;;;;22.02;18.88;;;6.20;99.90;;;;;;4954413;28;20104;-76
2023/12/01 03:54:02;;;;;;;25.00;19.30;;;6.30;99.90;;;;;;4955575;28;20109;-76
2023/12/01 03:56:28;;;;;;;21.90;18.90;;;6.30;99.90;;;;;;4956464;28;20118;-76
2023/12/01 03:58:56;;;;;;;20.38;18.17;;;6.30;99.90;;;;;;4959642;29;20019;-76
2023/12/01 04:01:26;;;;;;;20.38;17.13;;;6.30;99.90;;;;;;4942159;29;20478;-76
2023/12/01 04:03:53;;;;;;;19.85;17.17;;;6.30;99.90;;;;;;4959646;28;20451;-76
2023/12/01 04:06:18;;;;;;;20.40;18.25;;;6.30;99.90;;;;;;4942180;29;20027;-76
2023/12/01 04:08:44;;;;;;;20.67;18.48;;;6.30;99.90;;;;;;4959472;28;20505;-76
2023/12/01 04:11:10;;;;;;;20.20;18.02;;;6.30;99.90;;;;;;4941931;29;20031;-76
2023/12/01 04:13:36;;;;;;;21.13;18.85;;;6.40;99.90;;;;;;4958096;28;20054;-76
2023/12/01 04:16:02;;;;;;;20.55;17.75;;;6.30;99.90;;;;;;4959030;28;20397;-76
2023/12/01 04:18:29;;;;;;;20.27;17.52;;;6.30;99.90;;;;;;4959257;28;20098;-76
2023/12/01 04:20:54;;;;;;;19.35;16.65;;;6.40;99.90;;;;;;4943781;29;20027;-76
2023/12/01 04:23:20;;;;;;;18.98;16.17;;;6.40;99.90;;;;;;4941960;29;20074;-75
2023/12/01 04:25:46;;;;;;;17.17;15.38;;;6.40;99.90;;;;;;4955467;28;20402;-75
2023/12/01 04:28:13;;;;;;;16.95;14.95;;;6.40;99.90;;;;;;4955955;29;20514;-76
2023/12/01 04:30:40;;;;;;;17.58;15.77;;;6.40;99.90;;;;;;4955799;28;20030;-75
2023/12/01 04:33:06;;;;;;;18.00;16.10;;;6.40;99.90;;;;;;4938642;29;20079;-76
2023/12/01 04:35:33;;;;;;;18.00;16.13;;;6.30;99.90;;;;;;4956089;29;20027;-76
2023/12/01 04:38:03;;;;;;;18.25;15.50;;;6.30;99.90;;;;;;4953704;29;20023;-76
2023/12/01 04:40:29;;;;;;;16.60;14.55;;;6.30;99.90;;;;;;4955945;28;20019;-76
2023/12/01 04:42:56;;;;;;;16.80;14.95;;;6.30;99.90;;;;;;4955325;28;20152;-76
2023/12/01 04:45:26;;;;;;;16.42;14.48;;;6.30;99.90;;;;;;4955746;29;20031;-76
2023/12/01 04:47:54;;;;;;;19.52;15.70;;;6.30;99.90;;;;;;4937352;28;20031;-76
2023/12/01 04:50:21;;;;;;;16.15;14.45;;;6.30;99.90;;;;;;4955752;29;20020;-76
2023/12/01 04:52:49;;;;;;;16.45;14.65;;;6.30;99.90;;;;;;4955224;28;20035;-76
2023/12/01 04:55:17;;;;;;;15.15;13.43;;;6.30;99.90;;;;;;4935474;29;20059;-76
2023/12/01 04:57:47;;;;;;;15.02;13.35;;;6.40;99.90;;;;;;4954938;28;20023;-76
2023/12/01 05:00:21;;;;;;;16.80;14.07;;;6.40;99.90;;;;;;4954512;29;20029;-76
2023/12/01 05:02:52;;;;;;;24.42;18.52;;;6.40;99.90;;;;;;4936355;29;20469;-76
2023/12/01 05:05:29;;;;;;;21.65;17.35;;;6.30;99.90;;;;;;4955570;28;20032;-75
2023/12/01 05:08:00;;;;;;;22.90;19.75;;;6.30;99.90;;;;;;4954223;29;20481;-76
2023/12/01 05:10:27;;;;;;;25.95;19.30;;;6.30;99.90;;;;;;4938241;29;20028;-76
2023/12/01 05:12:55;;;;;;;22.58;17.90;;;6.20;99.90;;;;;;4954826;29;20031;-76
2023/12/01 05:15:28;;;;;;;35.05;22.90;;;6.30;99.90;;;;;;4937905;29;20429;-76
2023/12/01 05:17:55;;;;;;;30.40;21.20;;;6.20;99.90;;;;;;4956354;28;20489;-76
2023/12/01 05:20:23;;;;;;;26.92;20.00;;;6.30;99.90;;;;;;4937974;28;20027;-76
2023/12/01 05:22:49;;;;;;;23.35;18.23;;;6.30;99.90;;;;;;4954571;29;20047;-76
2023/12/01 05:25:19;;;;;;;26.38;19.13;;;6.30;99.90;;;;;;4955227;29;20042;-77
2023/12/01 05:27:49;;;;;;;21.23;16.92;;;6.40;99.90;;;;;;4954336;29;20109;-76
2023/12/01 05:30:23;;;;;;;22.95;18.65;;;6.40;99.90;;;;;;4954921;29;20027;-76
2023/12/01 05:32:51;;;;;;;19.48;16.30;;;6.30;99.90;;;;;;4954140;29;20660;-76
2023/12/01 05:35:18;;;;;;;21.33;17.38;;;6.30;99.90;;;;;;4934298;29;20023;-76
2023/12/01 05:37:48;;;;;;;24.92;19.65;;;6.30;99.90;;;;;;4953102;28;20027;-76
2023/12/01 05:40:22;;;;;;;35.40;25.20;;;6.30;99.90;;;;;;4952369;29;20066;-76
2023/12/01 05:42:52;;;;;;;33.33;23.38;;;6.20;99.90;;;;;;4951160;28;20038;-76
2023/12/01 05:45:18;;;;;;;27.17;22.15;;;6.30;99.90;;;;;;4937573;29;20034;-76
2023/12/01 05:47:45;;;;;;;29.42;22.60;;;6.30;99.90;;;;;;4936981;29;20031;-75
2023/12/01 05:50:38;;;;;;;31.55;24.60;;;6.30;99.90;;;;;;4954441;29;20114;-76
2023/12/01 05:53:07;;;;;;;30.85;23.58;;;6.30;99.90;;;;;;4928733;29;20043;-76
2023/12/01 05:55:33;;;;;;;33.42;24.10;;;6.30;99.90;;;;;;4932098;29;20318;-76
2023/12/01 05:58:06;;;;;;;31.92;24.13;;;6.30;99.90;;;;;;4936979;29;20493;-76
2023/12/01 06:00:32;;;;;;;32.53;25.25;;;6.40;99.90;;;;;;4937099;29;20398;-77
2023/12/01 06:02:59;;;;;;;30.27;23.27;;;6.40;99.90;;;;;;4953745;28;20027;-76
2023/12/01 06:05:26;;;;;;;30.95;23.38;;;6.40;99.90;;;;;;4954332;29;20027;-76
2023/12/01 06:07:57;;;;;;;31.65;22.02;;;6.40;99.90;;;;;;4952527;29;20500;-76
2023/12/01 06:10:24;;;;;;;24.65;20.48;;;6.40;99.90;;;;;;4954141;29;20397;-75
2023/12/01 06:12:50;;;;;;;30.63;22.52;;;6.40;99.90;;;;;;4953262;29;20568;-76
2023/12/01 06:15:17;;;;;;;27.90;21.40;;;6.40;99.90;;;;;;4935857;29;20032;-76
2023/12/01 06:17:45;;;;;;;25.02;20.02;;;6.40;99.90;;;;;;4936619;29;20038;-76
2023/12/01 06:20:19;;;;;;;29.70;21.58;;;6.30;99.90;;;;;;4934170;29;20083;-76
2023/12/01 06:22:57;;;;;;;26.95;22.05;;;6.30;99.90;;;;;;4936281;29;20023;-76
2023/12/01 06:25:27;;;;;;;19.58;17.52;;;6.30;99.90;;;;;;4950667;28;20086;-76
2023/12/01 06:27:57;;;;;;;21.98;17.75;;;6.40;99.90;;;;;;4956318;28;20014;-76
2023/12/01 06:30:28;;;;;;;22.77;18.00;;;6.40;99.90;;;;;;4953961;29;20031;-76
2023/12/01 06:32:54;;;;;;;21.50;18.88;;;6.30;99.90;;;;;;4948029;29;20145;-76
2023/12/01 06:35:20;;;;;;;33.17;23.10;;;6.30;99.90;;;;;;4936685;29;20159;-76
2023/12/01 06:37:47;;;;;;;31.23;23.17;;;6.30;99.90;;;;;;4952564;29;20050;-77
2023/12/01 06:40:18;;;;;;;32.80;23.15;;;6.30;99.90;;;;;;4936110;29;20031;-76
2023/12/01 06:42:46;;;;;;;25.50;20.48;;;6.30;99.90;;;;;;4953060;29;20469;-76
2023/12/01 06:45:14;;;;;;;35.10;24.98;;;6.40;99.90;;;;;;4935844;29;20496;-76
2023/12/01 06:47:41;;;;;;;38.88;26.73;;;6.30;99.90;;;;;;4952482;28;20054;-76
2023/12/01 06:50:10;;;;;;;36.38;25.42;;;6.30;99.90;;;;;;4950194;29;20489;-76
2023/12/01 06:52:39;;;;;;;28.02;23.23;;;6.20;99.90;;;;;;4953079;28;20039;-76
2023/12/01 06:55:07;;;;;;;28.10;21.45;;;6.30;99.90;;;;;;4953467;29;20031;-75
2023/12/01 06:58:02;;;;;;;25.88;21.17;;;6.30;99.90;;;;;;4932432;29;20520;-76
2023/12/01 07:02:59;;;;;;;24.08;20.83;;;6.30;99.90;;;;;;4951432;29;20086;-76
2023/12/01 07:05:26;;;;;;;23.63;20.52;;;6.30;99.90;;;;;;4934182;29;20037;-76
2023/12/01 07:07:56;;;;;;;27.67;21.60;;;6.30;99.90;;;;;;4950764;29;20027;-76
2023/12/01 07:10:22;;;;;;;23.00;20.55;;;6.30;99.90;;;;;;4951067;28;20490;-75
2023/12/01 07:12:49;;;;;;;22.48;18.48;;;6.30;99.90;;;;;;4951937;29;20061;-76
2023/12/01 07:15:21;;;;;;;18.40;16.42;;;6.40;99.90;;;;;;4952313;29;20031;-76
2023/12/01 07:17:51;;;;;;;22.45;18.55;;;6.40;99.90;;;;;;4952148;29;20509;-76
2023/12/01 07:20:18;;;;;;;20.23;18.02;;;6.30;99.90;;;;;;4953289;29;20066;-76
2023/12/01 07:22:48;;;;;;;19.67;17.73;;;6.30;99.90;;;;;;4952678;28;20062;-76
2023/12/01 07:25:22;;;;;;;17.70;15.95;;;6.40;99.90;;;;;;4935872;28;20507;-76
2023/12/01 07:27:48;;;;;;;19.55;17.45;;;6.40;99.90;;;;;;4955726;28;20031;-76
2023/12/01 07:30:16;;;;;;;21.88;18.75;;;6.40;99.90;;;;;;4953144;28;20077;-77
2023/12/01 07:32:44;;;;;;;19.85;17.65;;;6.40;99.90;;;;;;4952612;29;20066;-76
2023/12/01 07:35:10;;;;;;;17.65;15.75;;;6.40;99.90;;;;;;4953051;29;20498;-76
2023/12/01 07:37:37;;;;;;;18.27;16.35;;;6.40;99.90;;;;;;4952523;28;20034;-76
2023/12/01 07:40:06;;;;;;;18.83;16.83;;;6.40;99.90;;;;;;4950249;28;20020;-76
2023/12/01 07:42:32;;;;;;;17.10;15.30;;;6.40;99.90;;;;;;4952315;29;20031;-76
2023/12/01 07:44:59;;;;;;;18.75;16.85;;;6.40;99.90;;;;;;4952959;29;20330;-76
2023/12/01 07:47:25;;;;;;;22.55;18.58;;;6.50;99.90;;;;;;4935304;29;20043;-76
2023/12/01 07:49:54;;;;;;;20.92;18.77;;;6.40;99.90;;;;;;4953003;29;20489;-76
2023/12/01 07:52:23;;;;;;;30.40;22.35;;;6.40;99.90;;;;;;4952408;28;20032;-76
2023/12/01 07:54:49;;;;;;;23.95;18.85;;;6.40;99.90;;;;;;4952800;29;20031;-76
2023/12/01 07:57:14;;;;;;;37.83;26.02;;;6.40;99.90;;;;;;4952308;28;20031;-76
2023/12/01 07:59:40;;;;;;;39.20;27.65;;;6.40;99.90;;;;;;4936357;29;20031;-76
2023/12/01 08:02:06;;;;;;;298.38;139.50;;;6.40;99.90;;;;;;4953384;29;20362;-76
2023/12/01 08:04:31;;;;;;;138.52;70.10;;;6.50;99.90;;;;;;4956500;28;20402;-76
2023/12/01 08:06:57;;;;;;;69.82;39.97;;;6.40;99.90;;;;;;4952318;28;20126;-76
2023/12/01 08:09:23;;;;;;;85.82;46.95;;;6.40;99.90;;;;;;4954474;28;20472;-76
2023/12/01 08:11:49;;;;;;;90.28;49.17;;;6.40;99.90;;;;;;4938622;29;20141;-76
2023/12/01 08:14:15;;;;;;;69.00;40.63;;;6.50;99.90;;;;;;4938908;29;20503;-76
2023/12/01 08:16:42;;;;;;;87.85;47.40;;;6.50;99.90;;;;;;4955545;29;20118;-76
2023/12/01 08:19:09;;;;;;;88.60;49.00;;;6.50;99.90;;;;;;4956038;29;20027;-76
2023/12/01 08:21:36;;;;;;;88.00;48.10;;;6.50;99.90;;;;;;4953224;29;20069;-76
2023/12/01 08:24:04;;;;;;;84.20;45.63;;;6.50;99.90;;;;;;4955978;28;20091;-76
2023/12/01 08:26:32;;;;;;;52.95;31.02;;;6.40;99.90;;;;;;4955635;28;20130;-76
2023/12/01 08:28:58;;;;;;;69.78;35.88;;;6.40;99.90;;;;;;4956589;28;20039;-76
2023/12/01 08:31:24;;;;;;;123.03;58.58;;;6.40;99.90;;;;;;4955386;28;20031;-76
2023/12/01 08:33:50;;;;;;;127.00;59.22;;;6.40;99.90;;;;;;4955759;29;20055;-76
2023/12/01 08:36:17;;;;;;;98.80;48.67;;;6.40;99.90;;;;;;4955327;29;20038;-76
2023/12/01 08:38:43;;;;;;;58.83;32.83;;;6.40;99.90;;;;;;4937830;29;20032;-76
2023/12/01 08:41:09;;;;;;;35.38;26.52;;;6.50;99.90;;;;;;4955126;29;20033;-76
2023/12/01 08:43:34;;;;;;;37.83;26.65;;;6.50;99.90;;;;;;4955473;29;20370;-76
2023/12/01 08:46:00;;;;;;;33.17;23.52;;;6.50;99.90;;;;;;4955145;28;20034;-76
2023/12/01 08:48:26;;;;;;;27.75;21.55;;;6.50;99.90;;;;;;4955600;29;20032;-76
2023/12/01 08:50:51;;;;;;;22.48;20.08;;;6.50;99.90;;;;;;4955071;29;20031;-76
2023/12/01 08:53:17;;;;;;;22.90;20.20;;;6.50;99.90;;;;;;4955451;28;20020;-77
2023/12/01 08:55:46;;;;;;;22.08;19.65;;;6.60;99.90;;;;;;4953875;28;20150;-76
2023/12/01 08:58:12;;;;;;;20.35;18.30;;;6.50;99.90;;;;;;4936427;29;20626;-76
2023/12/01 09:00:38;;;;;;;19.38;17.58;;;6.50;99.90;;;;;;4937809;29;20120;-76
2023/12/01 09:03:03;;;;;;;21.13;19.02;;;6.60;99.90;;;;;;4954981;29;20390;-76
2023/12/01 09:05:29;;;;;;;20.02;18.02;;;6.60;99.90;;;;;;4955356;28;20028;-76
2023/12/01 09:07:55;;;;;;;19.98;17.40;;;6.60;99.90;;;;;;4952915;29;20176;-76
2023/12/01 09:10:22;;;;;;;22.63;20.13;;;6.60;99.90;;;;;;4953732;28;20035;-77
2023/12/01 09:12:50;;;;;;;24.23;20.50;;;6.60;99.90;;;;;;4951197;28;20031;-77
2023/12/01 09:15:15;;;;;;;21.15;18.95;;;6.60;99.90;;;;;;4937296;29;20023;-76
2023/12/01 09:17:42;;;;;;;30.60;23.70;;;6.60;99.90;;;;;;4954730;29;20122;-75
2023/12/01 09:20:11;;;;;;;30.63;24.38;;;6.60;99.90;;;;;;4953626;28;20128;-76
2023/12/01 09:22:37;;;;;;;32.67;25.88;;;6.60;99.90;;;;;;4954472;28;20035;-76
2023/12/01 09:25:04;;;;;;;29.85;24.08;;;6.60;99.90;;;;;;4955055;29;20035;-76
2023/12/01 09:27:30;;;;;;;25.52;21.98;;;6.60;99.90;;;;;;4954491;28;20046;-77
2023/12/01 09:29:55;;;;;;;36.58;24.67;;;6.60;99.90;;;;;;4953485;28;20038;-76
2023/12/01 09:32:21;;;;;;;38.20;26.60;;;6.70;99.90;;;;;;4951893;29;20126;-76
2023/12/01 09:34:47;;;;;;;30.10;21.77;;;6.70;99.90;;;;;;4934748;29;20397;-76
2023/12/01 09:37:13;;;;;;;29.13;22.67;;;6.70;99.90;;;;;;4956796;28;20492;-77
2023/12/01 09:39:39;;;;;;;33.25;25.27;;;6.80;99.90;;;;;;4952516;28;20023;-77
2023/12/01 09:42:06;;;;;;;27.08;20.98;;;6.80;99.90;;;;;;4954461;29;20027;-76
2023/12/01 09:44:32;;;;;;;24.85;19.67;;;6.80;99.90;;;;;;4954615;29;20031;-76
2023/12/01 09:47:00;;;;;;;29.00;20.77;;;6.80;99.90;;;;;;4953887;28;20421;-76
2023/12/01 09:49:30;;;;;;;26.92;22.02;;;6.80;99.90;;;;;;4937255;29;20027;-77
2023/12/01 09:51:56;;;;;;;116.60;66.93;;;6.80;99.90;;;;;;4954068;28;20027;-76
2023/12/01 09:54:22;;;;;;;228.95;119.97;;;6.80;99.90;;;;;;4954346;29;20532;-77
2023/12/01 09:56:48;;;;;;;182.65;91.75;;;6.90;99.90;;;;;;4936801;29;20497;-77
2023/12/01 09:59:16;;;;;;;186.70;87.32;;;6.90;99.90;;;;;;4954095;29;20027;-76
2023/12/01 10:01:42;;;;;;;197.95;90.82;;;6.80;99.90;;;;;;4953746;28;20532;-77
2023/12/01 10:04:08;;;;;;;181.25;82.82;;;6.80;99.90;;;;;;4954205;28;20055;-77
2023/12/01 10:06:37;;;;;;;49.45;31.85;;;6.90;99.90;;;;;;4953743;29;20027;-76
2023/12/01 10:09:09;;;;;;;27.20;22.42;;;6.80;99.90;;;;;;4929539;29;20405;-76
2023/12/01 10:11:35;;;;;;;23.23;19.65;;;6.80;99.90;;;;;;4932277;29;20126;-77
2023/12/01 10:14:07;;;;;;;25.25;20.95;;;6.80;99.90;;;;;;4949349;29;20401;-77
2023/12/01 10:16:36;;;;;;;20.75;18.35;;;6.80;99.90;;;;;;4949902;29;20042;-77
2023/12/01 10:19:05;;;;;;;20.88;18.63;;;6.90;99.90;;;;;;4932748;29;20023;-77
2023/12/01 10:21:40;;;;;;;23.10;20.17;;;6.90;99.90;;;;;;4948994;28;20031;-76
2023/12/01 10:24:23;;;;;;;22.02;19.73;;;6.90;99.90;;;;;;4930409;29;20031;-76
2023/12/01 10:26:51;;;;;;;21.58;19.40;;;6.90;99.90;;;;;;4948487;28;20035;-77
2023/12/01 10:29:30;;;;;;;24.75;20.75;;;6.90;99.90;;;;;;4951152;29;20031;-76
2023/12/01 10:32:03;;;;;;;24.85;21.17;;;6.90;99.90;;;;;;4933816;29;20508;-76
2023/12/01 10:34:29;;;;;;;24.48;20.40;;;7.00;99.90;;;;;;4953853;29;20393;-76
2023/12/01 10:36:55;;;;;;;28.08;23.05;;;7.00;99.90;;;;;;4953172;29;20042;-76
2023/12/01 10:39:30;;;;;;;22.27;19.88;;;7.00;99.90;;;;;;4936441;29;20215;-76
2023/12/01 10:41:57;;;;;;;24.77;21.52;;;7.00;99.90;;;;;;4936055;29;20035;-76
2023/12/01 10:44:27;;;;;;;26.88;23.20;;;7.00;99.90;;;;;;4953400;28;20528;-76
2023/12/01 10:46:54;;;;;;;27.13;21.65;;;7.00;99.90;;;;;;4953108;29;20393;-75
2023/12/01 10:49:21;;;;;;;27.33;22.77;;;7.00;99.90;;;;;;4936070;29;20493;-76
2023/12/01 10:51:54;;;;;;;25.63;22.35;;;7.00;99.90;;;;;;4949487;28;20166;-75
2023/12/01 10:54:23;;;;;;;34.28;24.85;;;6.90;99.90;;;;;;4936311;29;20409;-75
2023/12/01 10:57:19;;;;;;;34.30;24.85;;;7.00;99.90;;;;;;4952899;29;20040;-75
2023/12/01 10:59:50;;;;;;;35.78;25.15;;;7.00;99.90;;;;;;4950382;28;20028;-75
2023/12/01 11:02:18;;;;;;;35.80;25.02;;;7.10;99.90;;;;;;4952996;29;20046;-75
2023/12/01 11:04:45;;;;;;;32.90;22.75;;;7.10;99.90;;;;;;4952753;28;20027;-76
2023/12/01 11:07:48;;;;;;;32.28;21.75;;;7.20;99.90;;;;;;4949234;29;20080;-76
2023/12/01 11:10:35;;;;;;;30.60;21.15;;;7.20;99.90;;;;;;4951538;29;20433;-75
2023/12/01 11:13:06;;;;;;;30.90;22.63;;;7.20;99.90;;;;;;4947951;29;20036;-75
2023/12/01 11:15:34;;;;;;;29.13;20.85;;;7.20;99.90;;;;;;4953060;29;20394;-75
2023/12/01 11:18:00;;;;;;;36.67;25.85;;;7.30;99.90;;;;;;4953060;28;20446;-76
2023/12/01 11:20:34;;;;;;;45.83;29.70;;;7.30;99.90;;;;;;4953348;28;20123;-75
2023/12/01 11:23:25;;;;;;;67.78;37.95;;;7.30;99.90;;;;;;4934959;29;20024;-75
2023/12/01 11:25:56;;;;;;;125.88;56.75;;;7.40;99.90;;;;;;4931979;29;20031;-75
2023/12/01 11:31:19;;;;;;;107.35;51.72;;;7.60;99.90;;;;;;4950073;29;20030;-76
2023/12/01 11:33:53;;;;;;;92.38;45.53;;;7.60;99.90;;;;;;4953864;28;20055;-75
2023/12/01 11:36:49;;;;;;;82.95;41.08;;;7.60;99.90;;;;;;4956427;29;20028;-75
2023/12/01 11:39:17;;;;;;;42.25;27.70;;;7.50;99.90;;;;;;4935553;28;20039;-76
2023/12/01 11:41:46;;;;;;;34.95;26.60;;;7.50;99.90;;;;;;4935695;29;20027;-75
2023/12/01 11:44:24;;;;;;;29.73;24.08;;;7.50;99.90;;;;;;4956518;29;20039;-75
2023/12/01 11:47:00;;;;;;;28.20;23.23;;;7.50;99.90;;;;;;4953054;28;20050;-75
2023/12/01 11:49:30;;;;;;;26.30;21.98;;;7.50;99.90;;;;;;4939542;29;20188;-75
2023/12/01 11:52:00;;;;;;;24.92;20.27;;;7.50;99.90;;;;;;4956119;29;20031;-76
2023/12/01 11:54:26;;;;;;;54.83;29.98;;;7.50;99.90;;;;;;4956605;29;20020;-76
2023/12/01 11:56:57;;;;;;;53.72;30.95;;;7.60;99.90;;;;;;4952507;29;20043;-76
2023/12/01 11:59:24;;;;;;;42.85;26.92;;;7.60;99.90;;;;;;4956274;28;20063;-75
2023/12/01 12:01:53;;;;;;;58.10;32.80;;;7.60;99.90;;;;;;4938848;29;20585;-76
2023/12/01 12:04:23;;;;;;;61.03;31.58;;;7.60;99.90;;;;;;4939130;29;20031;-76
2023/12/01 12:06:49;;;;;;;47.95;30.25;;;7.60;99.90;;;;;;4956144;29;20529;-75
2023/12/01 12:09:18;;;;;;;53.42;32.60;;;7.60;99.90;;;;;;4938616;29;20035;-75
2023/12/01 12:11:46;;;;;;;47.72;28.85;;;7.60;99.90;;;;;;4938741;29;20082;-75
2023/12/01 12:14:12;;;;;;;46.42;28.40;;;7.60;99.90;;;;;;4956142;29;20035;-75
2023/12/01 12:16:38;;;;;;;59.88;32.75;;;7.60;99.90;;;;;;4955540;29;20043;-76
2023/12/01 12:19:04;;;;;;;54.08;33.25;;;7.70;99.90;;;;;;4955916;29;20134;-75
2023/12/01 12:21:30;;;;;;;51.63;31.20;;;7.70;99.90;;;;;;4938580;29;20118;-76
2023/12/01 12:23:56;;;;;;;62.28;33.92;;;7.70;99.90;;;;;;4955934;28;20019;-76
2023/12/01 12:26:24;;;;;;;70.43;38.40;;;7.70;99.90;;;;;;4955654;28;20034;-76
2023/12/01 12:28:57;;;;;;;58.55;34.40;;;7.70;99.90;;;;;;4936668;29;20028;-76
2023/12/01 12:31:25;;;;;;;49.53;31.77;;;7.70;99.90;;;;;;4938273;29;20399;-75
2023/12/01 12:33:58;;;;;;;41.63;25.85;;;7.70;99.90;;;;;;4938548;29;20616;-75
2023/12/01 12:36:29;;;;;;;37.83;29.23;;;7.70;99.90;;;;;;4956238;28;20292;-76
2023/12/01 12:39:07;;;;;;;41.63;32.75;;;7.70;99.90;;;;;;4954331;29;20024;-75
2023/12/01 12:41:35;;;;;;;27.45;23.52;;;7.70;99.90;;;;;;4955197;29;20038;-76
2023/12/01 12:44:02;;;;;;;56.47;35.38;;;7.70;99.90;;;;;;4938172;29;20540;-76
2023/12/01 12:46:29;;;;;;;47.15;31.60;;;7.70;99.90;;;;;;4937345;29;20046;-76